This is the latest recevied weather packets stored in our database for station/object 9D9-WX. If no packets are shown the sender has not sent any weather packets the latest 1 day(s).
| Time | Temp. | Humidity | Pressure | Rain* | Wind** | Luminosity | Snow |
|---|---|---|---|---|---|---|---|
| 1778040911 | 7.22° C | 68% | 981.4 hPa | 0 mm | 1.79 m/s, 270° | - | - |
| 1778040035 | 6.67° C | 68% | 981.4 hPa | 0 mm | 1.34 m/s, 280° | - | - |
| 1778039109 | 6.67° C | 58% | 981.2 hPa | 0 mm | 1.79 m/s, 264° | - | - |
| 1778037311 | 7.78° C | 54% | 981.1 hPa | 0 mm | 0.89 m/s, 238° | - | - |
| 1778036434 | 7.78° C | 54% | 981.1 hPa | 0 mm | 1.79 m/s, 241° | - | - |
| 1778035511 | 7.78° C | 50% | 981 hPa | 0 mm | 1.34 m/s, 237° | - | - |
| 1778034635 | 8.89° C | 48% | 981.3 hPa | 0 mm | 1.34 m/s, 258° | - | - |
| 1778033711 | 8.89° C | 48% | 981.3 hPa | 0 mm | 1.34 m/s, 260° | - | - |
| 1778032826 | 8.89° C | 48% | 981.3 hPa | 0 mm | 1.34 m/s, 262° | - | - |
| 1778031910 | 8.89° C | 43% | 980.8 hPa | 0 mm | 0.89 m/s, 257° | - | - |
| 1778031028 | 8.89° C | 43% | 980.8 hPa | 0 mm | 1.34 m/s, 270° | - | - |
| 1778030111 | 8.33° C | 43% | 980.8 hPa | 0 mm | 2.24 m/s, 285° | - | - |
| 1778029230 | 8.33° C | 43% | 980.8 hPa | 0 mm | 2.24 m/s, 292° | - | - |
| 1778028310 | 9.44° C | 37% | 980.8 hPa | 0 mm | 1.79 m/s, 286° | - | - |
| 1778027422 | 10° C | 37% | 981.2 hPa | 0 mm | 2.24 m/s, 284° | - | - |
| 1778026510 | 10° C | 37% | 981.2 hPa | 0 mm | 3.13 m/s, 290° | - | - |
| 1778025632 | 10.56° C | 37% | 981.2 hPa | 0 mm | 3.58 m/s, 293° | - | - |
| 1778024710 | 10.56° C | 35% | 980.9 hPa | 0 mm | 4.02 m/s, 294° | - | - |
| 1778023826 | 10.56° C | 34% | 980.9 hPa | 0 mm | 4.47 m/s, 294° | - | - |
| 1778022910 | 11.11° C | 34% | 980.9 hPa | 0 mm | 4.47 m/s, 289° | - | - |
| 1778022027 | 11.11° C | 34% | 980.9 hPa | 0 mm | 4.92 m/s, 289° | - | - |
| 1778021110 | 11.11° C | 35% | 980.8 hPa | 0 mm | 5.36 m/s, 289° | - | - |
| 1778020227 | 11.67° C | 36% | 981.2 hPa | 0 mm | 5.36 m/s, 288° | - | - |
| 1778019309 | 11.67° C | 36% | 981.2 hPa | 0 mm | 5.81 m/s, 285° | - | - |
| 1778018431 | 12.22° C | 36% | 981.2 hPa | 0 mm | 5.81 m/s, 281° | - | - |
* Rain latest hour (hover to see other rain measurements)
** Current wind speed in m/s (hover to see current wind gust speed)